createdAt,value
2018-11-13T00:00:39.578Z,1009.89
2018-11-13T00:01:19.905Z,1009.89
2018-11-13T00:02:00.348Z,1009.86
2018-11-13T00:02:40.777Z,1009.84
2018-11-13T00:03:21.188Z,1009.81
2018-11-13T00:04:01.549Z,1009.83
2018-11-13T00:04:42.021Z,1009.81
2018-11-13T00:05:22.434Z,1009.83
2018-11-13T00:06:02.792Z,1009.8
2018-11-13T00:06:43.327Z,1009.8
2018-11-13T00:07:23.900Z,1009.78
2018-11-13T00:08:04.241Z,1009.81
2018-11-13T00:08:44.734Z,1009.83
2018-11-13T00:09:25.033Z,1009.83
2018-11-13T00:10:05.457Z,1009.84
2018-11-13T00:10:45.995Z,1009.81
2018-11-13T00:11:27.998Z,1009.8
2018-11-13T00:12:08.170Z,1009.78
2018-11-13T00:12:48.587Z,1009.77
2018-11-13T00:13:28.972Z,1009.75
2018-11-13T00:14:09.385Z,1009.72
2018-11-13T00:14:50.077Z,1009.7
2018-11-13T00:15:30.244Z,1009.66
2018-11-13T00:16:10.806Z,1009.64
2018-11-13T00:16:51.491Z,1009.64
2018-11-13T00:17:31.753Z,1009.63
2018-11-13T00:18:12.197Z,1009.58
2018-11-13T00:18:52.639Z,1009.56
2018-11-13T00:19:33.281Z,1009.59
2018-11-13T00:20:13.829Z,1009.56
2018-11-13T00:20:55.424Z,1009.56
2018-11-13T00:21:36.326Z,1009.59
2018-11-13T00:22:16.703Z,1009.59
2018-11-13T00:22:57.138Z,1009.6
2018-11-13T00:23:37.867Z,1009.62
2018-11-13T00:24:18.837Z,1009.63
2018-11-13T00:25:00.321Z,1009.6
2018-11-13T00:25:40.826Z,1009.64
2018-11-13T00:26:29.530Z,1009.62
2018-11-13T00:27:10.140Z,1009.61
2018-11-13T00:27:50.669Z,1009.59
2018-11-13T00:28:32.471Z,1009.54
2018-11-13T00:29:13.319Z,1009.54
2018-11-13T00:29:55.039Z,1009.55
2018-11-13T00:30:40.483Z,1009.49
2018-11-13T00:31:25.729Z,1009.51
2018-11-13T00:32:07.408Z,1009.5
2018-11-13T00:34:43.149Z,1009.36
2018-11-13T00:35:36.076Z,1009.42
2018-11-13T00:36:28.831Z,1009.39
2018-11-13T00:37:26.431Z,1009.38
2018-11-13T00:38:31.444Z,1009.4
2018-11-13T00:39:26.104Z,1009.34
2018-11-13T00:41:26.254Z,1009.34
2018-11-13T00:42:06.605Z,1009.28
2018-11-13T00:42:47.006Z,1009.27
2018-11-13T00:43:27.384Z,1009.28
2018-11-13T00:44:07.813Z,1009.3
2018-11-13T00:44:48.187Z,1009.24
2018-11-13T00:45:28.692Z,1009.26
2018-11-13T00:46:09.232Z,1009.26
2018-11-13T00:46:49.447Z,1009.26
2018-11-13T00:47:29.826Z,1009.24
2018-11-13T00:48:10.241Z,1009.23
2018-11-13T00:48:50.635Z,1009.28
2018-11-13T00:49:31.017Z,1009.29
2018-11-13T00:50:11.425Z,1009.28
2018-11-13T00:52:24.244Z,1009.34
2018-11-13T00:53:04.509Z,1009.27
2018-11-13T00:53:44.981Z,1009.25
2018-11-13T00:54:25.382Z,1009.25
2018-11-13T00:55:05.788Z,1009.18
2018-11-13T00:55:46.708Z,1009.24
2018-11-13T00:56:27.134Z,1009.23
2018-11-13T00:57:07.564Z,1009.25
2018-11-13T00:57:48.248Z,1009.29
2018-11-13T00:58:28.681Z,1009.29
2018-11-13T00:59:09.022Z,1009.37
2018-11-13T00:59:49.409Z,1009.37
2018-11-13T01:00:29.807Z,1009.36
2018-11-13T01:01:10.196Z,1009.39
2018-11-13T01:01:50.641Z,1009.42
2018-11-13T01:02:31.012Z,1009.43
2018-11-13T01:03:11.383Z,1009.48
2018-11-13T01:03:51.823Z,1009.53
2018-11-13T01:04:32.231Z,1009.56
2018-11-13T01:05:12.771Z,1009.55
2018-11-13T01:05:53.457Z,1009.58
2018-11-13T01:06:33.453Z,1009.58
2018-11-13T01:07:13.835Z,1009.58
2018-11-13T01:07:54.251Z,1009.6
2018-11-13T01:08:34.641Z,1009.6
2018-11-13T01:09:15.079Z,1009.56
2018-11-13T01:09:55.516Z,1009.59
2018-11-13T01:10:35.882Z,1009.59
2018-11-13T01:11:16.331Z,1009.58
2018-11-13T01:11:56.960Z,1009.58
2018-11-13T01:12:37.125Z,1009.57
2018-11-13T01:13:17.549Z,1009.61
2018-11-13T01:13:57.977Z,1009.64
2018-11-13T01:14:38.357Z,1009.69
2018-11-13T01:15:18.806Z,1009.7
2018-11-13T01:15:59.210Z,1009.75
2018-11-13T01:16:39.635Z,1009.78
2018-11-13T01:17:20.114Z,1009.81
2018-11-13T01:18:00.474Z,1009.83
2018-11-13T01:18:40.857Z,1009.87
2018-11-13T01:19:21.275Z,1009.87
2018-11-13T01:20:01.693Z,1009.85
2018-11-13T01:20:42.127Z,1009.89
2018-11-13T01:21:22.524Z,1009.98
2018-11-13T01:22:02.955Z,1010.01
2018-11-13T01:22:43.358Z,1009.95
2018-11-13T01:23:24.096Z,1009.94
2018-11-13T01:24:04.138Z,1009.93
2018-11-13T01:24:44.560Z,1009.92
2018-11-13T01:25:24.932Z,1009.9
2018-11-13T01:26:05.305Z,1009.88
2018-11-13T01:26:45.745Z,1009.87
2018-11-13T01:29:56.380Z,1009.96
2018-11-13T01:30:48.512Z,1009.97
2018-11-13T01:31:40.790Z,1009.97
2018-11-13T01:32:32.898Z,1009.99
2018-11-13T01:33:24.872Z,1009.97
2018-11-13T01:34:16.898Z,1010.05
2018-11-13T01:35:09.420Z,1010.01
2018-11-13T01:36:01.600Z,1010.04
2018-11-13T01:36:54.363Z,1010.03
2018-11-13T01:37:46.458Z,1010.02
2018-11-13T01:38:39.075Z,1010
2018-11-13T01:39:31.396Z,1010
2018-11-13T01:40:23.490Z,1010.03
2018-11-13T01:41:15.885Z,1010.03
2018-11-13T01:42:08.007Z,1010.08
2018-11-13T01:42:59.985Z,1010.11
2018-11-13T01:43:52.357Z,1010.05
2018-11-13T01:44:44.649Z,1010.07
2018-11-13T01:45:36.736Z,1010.05
2018-11-13T01:46:29.466Z,1010.06
2018-11-13T01:47:22.475Z,1010.05
2018-11-13T01:48:14.964Z,1009.97
2018-11-13T01:49:08.131Z,1009.94
2018-11-13T01:49:59.790Z,1009.94
2018-11-13T01:50:52.292Z,1009.94
2018-11-13T01:51:45.463Z,1010.02
2018-11-13T01:52:37.573Z,1010.03
2018-11-13T01:53:29.327Z,1010.04
2018-11-13T01:54:21.261Z,1010
2018-11-13T01:55:13.528Z,1010
2018-11-13T01:56:05.430Z,1010.04
2018-11-13T01:56:57.947Z,1010.05
2018-11-13T01:57:49.879Z,1010.01
2018-11-13T01:58:41.823Z,1010.08
2018-11-13T01:59:33.819Z,1010.07
2018-11-13T02:00:25.827Z,1010.07
2018-11-13T02:01:10.219Z,1010.06
2018-11-13T02:01:50.662Z,1010.06
2018-11-13T02:02:31.037Z,1010.07
2018-11-13T02:03:11.419Z,1010.06
2018-11-13T02:03:51.806Z,1010.05
2018-11-13T02:04:32.372Z,1010.04
2018-11-13T02:05:12.739Z,1010.05
2018-11-13T02:05:53.181Z,1010.08
2018-11-13T02:06:33.631Z,1010.08
2018-11-13T02:07:14.063Z,1010.1
2018-11-13T02:07:54.469Z,1010.13
2018-11-13T02:08:34.881Z,1010.11
2018-11-13T02:09:15.225Z,1010.12
2018-11-13T02:09:55.682Z,1010.1
2018-11-13T02:10:36.127Z,1010.1
2018-11-13T02:11:16.466Z,1010.1
2018-11-13T02:11:57.505Z,1010.11
2018-11-13T02:12:37.854Z,1010.11
2018-11-13T02:13:18.365Z,1010.13
2018-11-13T02:13:58.758Z,1010.11
2018-11-13T02:14:39.553Z,1010.1
2018-11-13T02:15:20.114Z,1010.1
2018-11-13T02:16:00.504Z,1010.06
2018-11-13T02:16:40.964Z,1010.09
2018-11-13T02:17:21.312Z,1010.01
2018-11-13T02:18:01.683Z,1009.98
2018-11-13T02:18:42.242Z,1009.93
2018-11-13T02:19:22.711Z,1009.92
2018-11-13T02:20:04.624Z,1009.88
2018-11-13T02:20:45.167Z,1009.85
2018-11-13T02:21:25.824Z,1009.82
2018-11-13T02:22:08.389Z,1009.81
2018-11-13T02:22:48.733Z,1009.79
2018-11-13T02:23:30.612Z,1009.77
2018-11-13T02:24:11.063Z,1009.77
2018-11-13T02:24:52.784Z,1009.82
2018-11-13T02:25:33.196Z,1009.8
2018-11-13T02:26:13.593Z,1009.78
2018-11-13T02:26:54.085Z,1009.8
2018-11-13T02:27:34.332Z,1009.76
2018-11-13T02:28:14.857Z,1009.75
2018-11-13T02:28:55.248Z,1009.8
2018-11-13T02:29:35.634Z,1009.8
2018-11-13T02:30:16.072Z,1009.84
2018-11-13T02:30:56.463Z,1009.85
2018-11-13T02:31:36.865Z,1009.86
2018-11-13T02:32:17.252Z,1009.87
2018-11-13T02:32:57.663Z,1009.87
2018-11-13T02:33:38.173Z,1009.84
2018-11-13T02:34:18.733Z,1009.85
2018-11-13T02:35:27.691Z,1009.79
2018-11-13T02:36:08.046Z,1009.79
2018-11-13T02:36:48.558Z,1009.77
2018-11-13T02:37:28.820Z,1009.76
2018-11-13T02:38:09.560Z,1009.71
2018-11-13T02:38:50.339Z,1009.71
2018-11-13T02:39:30.510Z,1009.71
2018-11-13T02:40:11.170Z,1009.69
2018-11-13T02:40:51.685Z,1009.73
2018-11-13T02:41:32.247Z,1009.75
2018-11-13T02:42:12.566Z,1009.79
2018-11-13T02:42:52.828Z,1009.82
2018-11-13T02:43:33.398Z,1009.87
2018-11-13T02:44:13.689Z,1009.95
2018-11-13T02:44:54.150Z,1009.94
2018-11-13T02:45:34.567Z,1009.93
2018-11-13T02:46:14.984Z,1009.95
2018-11-13T02:46:55.358Z,1009.96
2018-11-13T02:47:35.784Z,1009.95
2018-11-13T02:48:16.111Z,1009.96
2018-11-13T02:48:56.529Z,1009.99
2018-11-13T02:49:36.967Z,1009.97
2018-11-13T02:50:17.335Z,1010
2018-11-13T02:50:57.733Z,1009.97
2018-11-13T02:51:38.182Z,1009.95
2018-11-13T02:52:18.546Z,1009.95
2018-11-13T02:52:58.948Z,1009.93
2018-11-13T02:53:39.425Z,1009.92
2018-11-13T02:54:19.840Z,1009.95
2018-11-13T02:55:00.189Z,1009.98
2018-11-13T02:55:40.531Z,1009.99
2018-11-13T02:56:20.908Z,1010.04
2018-11-13T02:57:01.285Z,1010.03
2018-11-13T02:57:41.728Z,1010.04
2018-11-13T02:58:22.157Z,1010.05
2018-11-13T02:59:02.569Z,1010.08
2018-11-13T02:59:42.963Z,1010.07
2018-11-13T03:00:23.327Z,1010.04
2018-11-13T03:01:03.844Z,1010.04
2018-11-13T03:01:44.901Z,1010.06
2018-11-13T03:02:25.461Z,1010.08
2018-11-13T03:03:06.004Z,1010.04
2018-11-13T03:03:46.667Z,1010.08
2018-11-13T03:04:27.014Z,1010.07
2018-11-13T03:05:07.909Z,1010.07
2018-11-13T03:05:49.055Z,1010.13
2018-11-13T03:06:29.351Z,1010.12
2018-11-13T03:07:09.743Z,1010.21
2018-11-13T03:07:50.208Z,1010.23
2018-11-13T03:08:30.786Z,1010.27
2018-11-13T03:09:11.509Z,1010.31
2018-11-13T03:09:51.800Z,1010.32
2018-11-13T03:10:32.273Z,1010.33
2018-11-13T03:11:12.713Z,1010.31
2018-11-13T03:11:53.201Z,1010.31
2018-11-13T03:12:33.647Z,1010.33
2018-11-13T03:13:14.108Z,1010.29
2018-11-13T03:13:54.841Z,1010.3
2018-11-13T03:14:35.016Z,1010.28
2018-11-13T03:15:15.415Z,1010.34
2018-11-13T03:15:55.971Z,1010.36
2018-11-13T03:16:36.322Z,1010.42
2018-11-13T03:17:16.954Z,1010.42
2018-11-13T03:17:57.638Z,1010.44
2018-11-13T03:18:39.113Z,1010.41
2018-11-13T03:19:19.763Z,1010.43
2018-11-13T03:20:00.109Z,1010.42
2018-11-13T03:20:41.500Z,1010.45
2018-11-13T03:21:23.248Z,1010.44
2018-11-13T03:22:05.379Z,1010.49
2018-11-13T03:22:48.674Z,1010.5
2018-11-13T03:23:29.517Z,1010.54
2018-11-13T03:24:10.705Z,1010.58
2018-11-13T03:24:51.379Z,1010.54
2018-11-13T03:25:33.022Z,1010.54
2018-11-13T03:26:13.108Z,1010.46
2018-11-13T03:26:54.548Z,1010.45
2018-11-13T03:27:35.101Z,1010.39
2018-11-13T03:28:15.678Z,1010.43
2018-11-13T03:28:56.051Z,1010.45
2018-11-13T03:29:36.519Z,1010.51
2018-11-13T03:30:16.948Z,1010.52
2018-11-13T03:30:57.610Z,1010.55
2018-11-13T03:31:38.336Z,1010.55
2018-11-13T03:32:18.736Z,1010.53
2018-11-13T03:32:59.125Z,1010.53
2018-11-13T03:33:39.600Z,1010.51
2018-11-13T03:34:20.005Z,1010.53
2018-11-13T03:35:00.581Z,1010.49
2018-11-13T03:35:41.001Z,1010.52
2018-11-13T03:36:21.468Z,1010.49
2018-11-13T03:37:01.881Z,1010.46
2018-11-13T03:37:42.380Z,1010.46
2018-11-13T03:38:22.751Z,1010.44
2018-11-13T03:39:03.526Z,1010.45
2018-11-13T03:39:43.869Z,1010.43
2018-11-13T03:40:24.528Z,1010.46
2018-11-13T03:41:05.000Z,1010.44
2018-11-13T03:41:45.450Z,1010.43
2018-11-13T03:42:25.890Z,1010.42
2018-11-13T03:43:06.217Z,1010.41
2018-11-13T03:43:46.647Z,1010.39
2018-11-13T03:44:27.072Z,1010.38
2018-11-13T03:45:07.506Z,1010.39
2018-11-13T03:45:47.886Z,1010.41
2018-11-13T03:46:28.256Z,1010.42
2018-11-13T03:47:08.722Z,1010.4
2018-11-13T03:47:49.144Z,1010.37
2018-11-13T03:48:29.479Z,1010.43
2018-11-13T03:49:09.914Z,1010.46
2018-11-13T03:49:50.392Z,1010.43
2018-11-13T03:50:30.713Z,1010.49
2018-11-13T03:51:11.166Z,1010.5
2018-11-13T03:51:51.818Z,1010.54
2018-11-13T03:52:32.325Z,1010.54
2018-11-13T03:53:12.651Z,1010.55
2018-11-13T03:53:53.063Z,1010.55
2018-11-13T03:54:33.587Z,1010.57
2018-11-13T03:55:14.125Z,1010.56
2018-11-13T03:55:54.580Z,1010.48
2018-11-13T03:56:35.157Z,1010.56
2018-11-13T03:57:15.737Z,1010.49
2018-11-13T03:57:55.974Z,1010.46
2018-11-13T03:58:36.600Z,1010.49
2018-11-13T03:59:16.886Z,1010.51
2018-11-13T03:59:57.592Z,1010.55
2018-11-13T04:00:37.869Z,1010.58
2018-11-13T04:01:18.386Z,1010.59
2018-11-13T04:01:58.732Z,1010.56
2018-11-13T04:02:39.264Z,1010.59
2018-11-13T04:03:19.576Z,1010.53
2018-11-13T04:04:00.035Z,1010.52
2018-11-13T04:04:40.480Z,1010.53
2018-11-13T04:05:20.906Z,1010.51
2018-11-13T04:06:02.127Z,1010.58
2018-11-13T04:06:42.445Z,1010.53
2018-11-13T04:07:22.918Z,1010.57
2018-11-13T04:08:03.367Z,1010.51
2018-11-13T04:08:43.702Z,1010.47
2018-11-13T04:09:24.666Z,1010.42
2018-11-13T04:10:05.095Z,1010.29
2018-11-13T04:10:45.504Z,1010.28
2018-11-13T04:11:25.837Z,1010.23
2018-11-13T04:12:06.407Z,1010.15
2018-11-13T04:12:46.808Z,1010.13
2018-11-13T04:13:27.194Z,1010.16
2018-11-13T04:14:07.770Z,1010.16
2018-11-13T04:14:48.180Z,1010.16
2018-11-13T04:15:28.593Z,1010.12
2018-11-13T04:16:09.028Z,1010.16
2018-11-13T04:16:49.570Z,1010.18
2018-11-13T04:17:30.041Z,1010.23
2018-11-13T04:18:11.109Z,1010.24
2018-11-13T04:18:51.540Z,1010.21
2018-11-13T04:19:32.034Z,1010.29
2018-11-13T04:20:12.864Z,1010.27
2018-11-13T04:20:53.045Z,1010.29
2018-11-13T04:21:33.613Z,1010.22
2018-11-13T04:22:14.016Z,1010.24
2018-11-13T04:22:54.559Z,1010.25
2018-11-13T04:23:34.864Z,1010.25
2018-11-13T04:24:20.314Z,1010.28
2018-11-13T04:25:00.957Z,1010.34
2018-11-13T04:25:41.377Z,1010.37
2018-11-13T04:26:22.184Z,1010.37
2018-11-13T04:27:03.132Z,1010.45
2018-11-13T05:10:33.623Z,1010.82
2018-11-13T05:11:31.072Z,1010.84
2018-11-13T05:12:25.199Z,1010.79
2018-11-13T05:13:17.367Z,1010.7
2018-11-13T05:14:12.830Z,1010.73
2018-11-13T05:15:05.811Z,1010.76
2018-11-13T05:15:57.828Z,1010.8
2018-11-13T05:16:50.070Z,1010.85
2018-11-13T05:17:42.675Z,1010.85
2018-11-13T05:18:35.008Z,1010.96
2018-11-13T05:19:27.642Z,1011.03
2018-11-13T05:20:23.805Z,1011.02
2018-11-13T05:21:20.568Z,1011.08
2018-11-13T05:22:12.631Z,1011.13
2018-11-13T05:23:05.759Z,1011.13
2018-11-13T05:23:58.490Z,1011.06
2018-11-13T05:24:51.259Z,1011.08
2018-11-13T05:25:43.502Z,1011.06
2018-11-13T05:26:37.259Z,1011.02
2018-11-13T05:27:29.177Z,1011.03
2018-11-13T05:28:22.467Z,1011.02
2018-11-13T05:29:15.319Z,1011
2018-11-13T05:30:11.244Z,1011
2018-11-13T05:31:05.971Z,1011.04
2018-11-13T05:31:59.831Z,1011.02
2018-11-13T05:37:59.755Z,1011.27
2018-11-13T05:38:53.709Z,1011.27
2018-11-13T05:39:45.852Z,1011.3
2018-11-13T05:40:40.125Z,1011.27
2018-11-13T05:41:34.164Z,1011.31
2018-11-13T05:42:26.304Z,1011.35
2018-11-13T05:44:50.380Z,1011.31
2018-11-13T05:45:32.424Z,1011.3
2018-11-13T05:46:12.646Z,1011.25
2018-11-13T05:46:53.191Z,1011.3
2018-11-13T05:47:34.089Z,1011.25
2018-11-13T05:48:14.187Z,1011.29
2018-11-13T05:48:54.608Z,1011.26
2018-11-13T05:49:34.970Z,1011.29
2018-11-13T05:50:15.450Z,1011.31
2018-11-13T05:50:55.852Z,1011.32
2018-11-13T05:51:37.511Z,1011.34
2018-11-13T05:53:58.917Z,1011.34
2018-11-13T05:54:52.148Z,1011.39
2018-11-13T05:56:52.577Z,1011.41
2018-11-13T05:57:35.944Z,1011.39
2018-11-13T05:58:16.778Z,1011.37
2018-11-13T05:58:56.821Z,1011.37
2018-11-13T05:59:37.736Z,1011.36
2018-11-13T06:00:18.791Z,1011.39
2018-11-13T06:01:00.074Z,1011.39
2018-11-13T06:01:40.549Z,1011.41
2018-11-13T06:02:21.185Z,1011.4
2018-11-13T06:03:02.920Z,1011.4
2018-11-13T06:03:44.838Z,1011.4
2018-11-13T06:04:24.854Z,1011.4
2018-11-13T06:05:06.132Z,1011.43
2018-11-13T06:05:46.486Z,1011.44
2018-11-13T06:06:27.120Z,1011.41
2018-11-13T06:07:07.339Z,1011.47
2018-11-13T06:07:48.024Z,1011.42
2018-11-13T06:08:28.599Z,1011.42
2018-11-13T06:09:08.942Z,1011.43
2018-11-13T06:09:50.141Z,1011.45
2018-11-13T06:10:30.613Z,1011.42
2018-11-13T06:11:11.178Z,1011.45
2018-11-13T06:11:52.047Z,1011.49
2018-11-13T06:12:33.051Z,1011.46
2018-11-13T06:13:12.938Z,1011.48
2018-11-13T06:13:53.402Z,1011.48
2018-11-13T06:14:35.144Z,1011.44
2018-11-13T06:15:17.084Z,1011.46
2018-11-13T06:15:57.672Z,1011.43
2018-11-13T06:16:39.377Z,1011.44
2018-11-13T06:17:20.216Z,1011.42
2018-11-13T06:18:02.090Z,1011.43
2018-11-13T06:18:42.725Z,1011.43
2018-11-13T06:19:23.329Z,1011.45
2018-11-13T06:20:03.818Z,1011.49
2018-11-13T06:20:44.268Z,1011.45
2018-11-13T06:21:26.559Z,1011.42
2018-11-13T06:22:07.433Z,1011.41
2018-11-13T06:22:48.910Z,1011.39
2018-11-13T06:23:29.370Z,1011.39
2018-11-13T06:24:09.975Z,1011.41
2018-11-13T06:24:50.619Z,1011.45
2018-11-13T06:25:32.400Z,1011.44
2018-11-13T06:26:13.855Z,1011.44
2018-11-13T06:26:57.759Z,1011.44
2018-11-13T06:29:30.539Z,1011.54
2018-11-13T06:30:10.821Z,1011.6
2018-11-13T06:30:51.434Z,1011.64
2018-11-13T06:31:31.842Z,1011.62
2018-11-13T06:32:12.554Z,1011.71
2018-11-13T06:32:53.488Z,1011.65
2018-11-13T06:33:34.196Z,1011.65
2018-11-13T06:34:14.712Z,1011.61
2018-11-13T06:34:55.305Z,1011.66
2018-11-13T06:35:35.908Z,1011.67
2018-11-13T06:36:16.179Z,1011.62
2018-11-13T06:36:56.936Z,1011.65
2018-11-13T06:37:37.604Z,1011.72
2018-11-13T06:38:18.549Z,1011.72
2018-11-13T06:38:58.983Z,1011.73
2018-11-13T06:39:39.374Z,1011.75
2018-11-13T06:40:19.838Z,1011.75
2018-11-13T06:41:00.269Z,1011.78
2018-11-13T06:41:40.788Z,1011.78
2018-11-13T06:42:21.314Z,1011.85
2018-11-13T06:43:01.850Z,1011.86
2018-11-13T06:47:38.661Z,1011.92
2018-11-13T06:48:22.040Z,1011.94
2018-11-13T06:49:02.560Z,1012.01
2018-11-13T06:49:44.952Z,1012.05
2018-11-13T06:50:25.399Z,1012.04
2018-11-13T06:51:05.873Z,1012.06
2018-11-13T06:51:46.424Z,1012.13
2018-11-13T06:52:27.898Z,1012.08
2018-11-13T06:54:58.397Z,1012.22
2018-11-13T06:55:38.645Z,1012.17
2018-11-13T06:56:22.141Z,1012.2
2018-11-13T06:57:03.587Z,1012.2
2018-11-13T06:57:43.996Z,1012.23
2018-11-13T07:08:47.496Z,1012.4
2018-11-13T07:09:29.111Z,1012.41
2018-11-13T07:10:10.765Z,1012.46
2018-11-13T07:10:51.565Z,1012.46
2018-11-13T07:11:32.043Z,1012.48
2018-11-13T07:12:12.463Z,1012.53
2018-11-13T07:12:54.596Z,1012.54
2018-11-13T07:13:35.044Z,1012.56
2018-11-13T07:14:16.444Z,1012.57
2018-11-13T07:14:56.869Z,1012.57
2018-11-13T07:20:51.728Z,1012.74
2018-11-13T07:26:12.110Z,1012.79
2018-11-13T07:27:07.493Z,1012.76
2018-11-13T07:28:00.210Z,1012.78
2018-11-13T07:28:53.755Z,1012.82
2018-11-13T07:29:46.051Z,1012.83
2018-11-13T07:30:39.260Z,1012.87
2018-11-13T07:31:31.585Z,1012.89
2018-11-13T07:32:25.636Z,1012.89
2018-11-13T07:33:20.831Z,1012.97
2018-11-13T07:34:15.530Z,1013.02
2018-11-13T07:35:10.783Z,1012.99
2018-11-13T07:36:04.830Z,1012.97
2018-11-13T07:37:20.312Z,1012.99
2018-11-13T07:40:41.784Z,1013.03
2018-11-13T07:41:41.119Z,1013.06
2018-11-13T07:53:31.298Z,1013.11
2018-11-13T07:54:13.290Z,1013.08
2018-11-13T07:54:53.862Z,1013.14
2018-11-13T07:55:34.243Z,1013.16
2018-11-13T07:56:14.889Z,1013.17
2018-11-13T07:56:55.921Z,1013.21
2018-11-13T07:57:36.205Z,1013.18
2018-11-13T08:02:46.598Z,1013.25
2018-11-13T08:03:25.416Z,1013.24
2018-11-13T08:04:05.597Z,1013.27
2018-11-13T08:04:46.099Z,1013.31
2018-11-13T08:05:26.646Z,1013.35
2018-11-13T08:06:07.459Z,1013.3
2018-11-13T08:06:48.062Z,1013.35
2018-11-13T08:07:28.393Z,1013.36
2018-11-13T08:08:08.799Z,1013.33
2018-11-13T08:08:49.255Z,1013.38
2018-11-13T08:09:29.724Z,1013.41
2018-11-13T08:10:10.152Z,1013.36
2018-11-13T08:10:50.472Z,1013.33
2018-11-13T08:11:30.905Z,1013.36
2018-11-13T08:12:12.434Z,1013.25
2018-11-13T08:12:53.075Z,1013.37
2018-11-13T08:13:33.391Z,1013.36
2018-11-13T08:14:13.961Z,1013.3
2018-11-13T08:14:54.481Z,1013.32
2018-11-13T08:15:35.301Z,1013.34
2018-11-13T08:16:15.726Z,1013.29
2018-11-13T08:16:56.275Z,1013.3
2018-11-13T08:17:36.833Z,1013.32
2018-11-13T08:18:17.454Z,1013.33
2018-11-13T08:18:57.944Z,1013.22
2018-11-13T08:19:38.540Z,1013.22
2018-11-13T08:20:19.941Z,1013.3
2018-11-13T08:21:00.900Z,1013.22
2018-11-13T08:21:41.298Z,1013.31
2018-11-13T08:22:21.645Z,1013.34
2018-11-13T08:23:04.222Z,1013.32
2018-11-13T08:23:45.767Z,1013.31
2018-11-13T08:41:29.320Z,1013.48
2018-11-13T08:52:02.075Z,1013.66
2018-11-13T08:52:42.838Z,1013.62
2018-11-13T08:53:24.000Z,1013.61
2018-11-13T08:54:07.820Z,1013.62
2018-11-13T08:54:50.803Z,1013.57
2018-11-13T08:55:33.224Z,1013.59
2018-11-13T08:56:15.217Z,1013.59
2018-11-13T08:56:56.542Z,1013.58
2018-11-13T08:57:38.101Z,1013.63
2018-11-13T08:58:20.618Z,1013.61
2018-11-13T08:59:01.207Z,1013.63
2018-11-13T08:59:41.394Z,1013.62
2018-11-13T09:00:22.181Z,1013.65
2018-11-13T09:01:03.241Z,1013.64
2018-11-13T09:01:44.211Z,1013.66
2018-11-13T09:02:25.415Z,1013.63
2018-11-13T09:03:06.454Z,1013.72
2018-11-13T09:03:47.367Z,1013.65
2018-11-13T09:04:28.663Z,1013.54
2018-11-13T09:05:09.654Z,1013.64
2018-11-13T09:05:51.565Z,1013.65
2018-11-13T09:06:31.851Z,1013.7
2018-11-13T09:07:16.000Z,1013.69
2018-11-13T09:07:58.919Z,1013.66
2018-11-13T09:08:40.016Z,1013.69
2018-11-13T09:09:20.776Z,1013.62
2018-11-13T09:10:02.455Z,1013.65
2018-11-13T09:10:43.568Z,1013.65
2018-11-13T09:11:24.409Z,1013.63
2018-11-13T09:12:06.551Z,1013.6
2018-11-13T09:12:47.243Z,1013.63
2018-11-13T09:13:28.787Z,1013.67
2018-11-13T09:14:10.685Z,1013.68
2018-11-13T09:14:51.839Z,1013.69
2018-11-13T09:15:35.346Z,1013.71
2018-11-13T09:16:16.512Z,1013.73
2018-11-13T09:16:57.784Z,1013.76
2018-11-13T09:17:38.518Z,1013.79
2018-11-13T09:18:19.432Z,1013.79
2018-11-13T09:19:00.551Z,1013.81
2018-11-13T09:19:42.514Z,1013.86
2018-11-13T09:20:23.295Z,1013.87
2018-11-13T09:21:04.820Z,1013.82
2018-11-13T09:21:46.152Z,1013.79
2018-11-13T09:22:27.380Z,1013.8
2018-11-13T09:23:08.587Z,1013.85
2018-11-13T09:23:48.354Z,1013.8
2018-11-13T09:24:29.591Z,1013.78
2018-11-13T09:25:10.943Z,1013.84
2018-11-13T09:25:54.490Z,1013.8
2018-11-13T09:26:35.393Z,1013.85
2018-11-13T09:27:18.314Z,1013.93
2018-11-13T09:27:58.130Z,1013.96
2018-11-13T09:28:38.265Z,1013.95
2018-11-13T09:29:18.921Z,1013.9
2018-11-13T09:30:00.258Z,1013.92
2018-11-13T09:30:40.812Z,1013.95
2018-11-13T09:31:21.280Z,1013.97
2018-11-13T09:32:02.270Z,1013.91
2018-11-13T09:32:43.231Z,1013.95
2018-11-13T09:33:24.236Z,1013.95
2018-11-13T09:34:05.586Z,1014.01
2018-11-13T09:34:45.779Z,1014.03
2018-11-13T09:35:27.683Z,1013.98
2018-11-13T09:36:08.739Z,1013.96
2018-11-13T09:36:49.399Z,1013.98
2018-11-13T09:37:31.186Z,1014.02
2018-11-13T09:38:11.615Z,1014.03
2018-11-13T09:38:52.881Z,1013.91
2018-11-13T09:39:33.499Z,1013.99
2018-11-13T09:40:15.085Z,1014.07
2018-11-13T09:40:55.300Z,1014.08
2018-11-13T09:41:37.211Z,1014.06
2018-11-13T09:42:17.501Z,1014.1
2018-11-13T09:42:59.065Z,1014.1
2018-11-13T09:43:39.595Z,1014.09
2018-11-13T09:44:21.581Z,1014.1
2018-11-13T09:45:02.016Z,1014.06
2018-11-13T09:45:44.205Z,1014.06
2018-11-13T09:46:24.676Z,1014.1
2018-11-13T09:47:05.287Z,1014.13
2018-11-13T09:47:46.720Z,1014.12
2018-11-13T09:48:27.049Z,1014.06
2018-11-13T09:49:07.803Z,1014.11
2018-11-13T09:49:48.825Z,1014.06
2018-11-13T09:50:30.558Z,1014.12
2018-11-13T09:51:11.577Z,1014.1
2018-11-13T09:51:56.324Z,1014.13
2018-11-13T09:52:38.108Z,1014.11
2018-11-13T09:53:18.987Z,1014.1
2018-11-13T09:54:00.280Z,1014.21
2018-11-13T09:54:41.350Z,1014.18
2018-11-13T09:55:24.975Z,1014.1
2018-11-13T09:56:05.862Z,1014.22
2018-11-13T09:56:46.573Z,1014.19
2018-11-13T09:57:27.075Z,1014.21
2018-11-13T09:58:11.597Z,1014.22
2018-11-13T09:58:52.153Z,1014.22
2018-11-13T10:02:30.007Z,1014.25
2018-11-13T10:03:11.022Z,1014.27
2018-11-13T10:03:52.562Z,1014.3
2018-11-13T10:04:34.258Z,1014.36
2018-11-13T10:05:14.568Z,1014.28
2018-11-13T10:05:54.976Z,1014.32
2018-11-13T10:06:36.256Z,1014.25
2018-11-13T10:07:20.560Z,1014.35
2018-11-13T10:08:01.408Z,1014.3
2018-11-13T10:08:43.118Z,1014.4
2018-11-13T10:09:24.277Z,1014.44
2018-11-13T10:10:04.787Z,1014.33
2018-11-13T10:10:45.317Z,1014.47
2018-11-13T10:11:26.025Z,1014.42
2018-11-13T10:12:07.898Z,1014.51
2018-11-13T10:12:48.765Z,1014.55
2018-11-13T10:13:29.147Z,1014.5
2018-11-13T10:14:09.881Z,1014.49
2018-11-13T10:14:50.552Z,1014.55
2018-11-13T10:15:32.351Z,1014.61
2018-11-13T10:16:12.982Z,1014.43
2018-11-13T10:16:53.847Z,1014.6
2018-11-13T10:17:34.471Z,1014.75
2018-11-13T10:18:17.455Z,1014.5
2018-11-13T10:18:59.124Z,1014.28
2018-11-13T10:19:40.440Z,1014.54
2018-11-13T10:20:21.694Z,1014.51
2018-11-13T10:21:02.201Z,1014.6
2018-11-13T10:21:43.906Z,1014.49
2018-11-13T10:22:27.921Z,1014.57
2018-11-13T10:23:08.884Z,1014.45
2018-11-13T10:23:50.895Z,1014.5
2018-11-13T10:24:32.119Z,1014.46
2018-11-13T10:25:15.233Z,1014.43
2018-11-13T10:25:56.027Z,1014.46
2018-11-13T10:26:36.832Z,1014.45
2018-11-13T10:27:17.805Z,1014.41
2018-11-13T10:27:58.599Z,1014.52
2018-11-13T10:28:39.581Z,1014.43
2018-11-13T11:10:41.547Z,1014.65
2018-11-13T11:11:22.302Z,1014.57
2018-11-13T11:12:03.121Z,1014.64
2018-11-13T11:12:44.841Z,1014.6
2018-11-13T11:13:26.790Z,1014.6
2018-11-13T11:14:08.964Z,1014.58
2018-11-13T11:14:50.664Z,1014.63
2018-11-13T11:15:32.499Z,1014.68
2018-11-13T11:16:13.067Z,1014.61
2018-11-13T11:16:53.768Z,1014.67
2018-11-13T11:17:34.172Z,1014.65
2018-11-13T11:18:15.261Z,1014.63
2018-11-13T11:18:55.689Z,1014.7
2018-11-13T11:19:36.282Z,1014.72
2018-11-13T11:20:16.729Z,1014.66
2018-11-13T11:20:57.146Z,1014.18
2018-11-13T11:21:38.632Z,1014.61
2018-11-13T11:22:20.531Z,1014.62
2018-11-13T11:23:02.810Z,1014.61
2018-11-13T11:23:46.658Z,1014.7
2018-11-13T11:24:27.480Z,1014.54
2018-11-13T11:25:08.105Z,1014.64
2018-11-13T11:25:50.263Z,1014.65
2018-11-13T11:26:30.780Z,1014.64
2018-11-13T11:27:11.454Z,1014.79
2018-11-13T11:27:51.861Z,1014.73
2018-11-13T11:28:32.370Z,1014.66
2018-11-13T11:29:14.422Z,1014.78
2018-11-13T11:29:54.341Z,1014.47
2018-11-13T11:30:36.016Z,1014.68
2018-11-13T11:31:15.698Z,1014.73
2018-11-13T11:31:56.951Z,1014.68